createdAt,value
2017-10-27T00:00:23.852Z,15.39
2017-10-27T00:00:50.049Z,15.43
2017-10-27T00:01:16.117Z,15.36
2017-10-27T00:01:42.243Z,15.4
2017-10-27T00:02:08.369Z,15.4
2017-10-27T00:02:34.482Z,15.36
2017-10-27T00:03:00.627Z,15.31
2017-10-27T00:03:26.747Z,15.28
2017-10-27T00:03:52.868Z,15.31
2017-10-27T00:04:18.989Z,15.25
2017-10-27T00:04:46.536Z,15.27
2017-10-27T00:05:12.663Z,15.33
2017-10-27T00:05:38.777Z,15.27
2017-10-27T00:06:04.900Z,15.27
2017-10-27T00:06:31.031Z,15.36
2017-10-27T00:06:57.177Z,15.27
2017-10-27T00:07:23.293Z,15.31
2017-10-27T00:07:49.419Z,15.31
2017-10-27T00:08:15.545Z,15.29
2017-10-27T00:08:41.671Z,15.36
2017-10-27T00:09:07.797Z,15.28
2017-10-27T00:09:33.924Z,15.29
2017-10-27T00:10:00.040Z,15.31
2017-10-27T00:10:26.161Z,15.28
2017-10-27T00:10:52.284Z,15.27
2017-10-27T00:11:18.410Z,15.35
2017-10-27T00:11:44.534Z,15.28
2017-10-27T00:12:10.656Z,15.33
2017-10-27T00:12:36.775Z,15.29
2017-10-27T00:13:02.920Z,15.27
2017-10-27T00:13:29.021Z,15.27
2017-10-27T00:13:55.141Z,15.29
2017-10-27T00:14:21.268Z,15.29
2017-10-27T00:14:47.392Z,15.28
2017-10-27T00:15:13.512Z,15.31
2017-10-27T00:15:39.633Z,15.37
2017-10-27T00:16:05.759Z,15.29
2017-10-27T00:16:31.878Z,15.39
2017-10-27T00:16:58.004Z,15.46
2017-10-27T00:17:24.122Z,15.35
2017-10-27T00:17:50.255Z,15.39
2017-10-27T00:18:16.375Z,15.36
2017-10-27T00:18:42.493Z,15.46
2017-10-27T00:19:08.613Z,15.4
2017-10-27T00:19:34.741Z,15.36
2017-10-27T00:20:00.859Z,15.39
2017-10-27T00:20:26.991Z,15.46
2017-10-27T00:20:53.126Z,15.39
2017-10-27T00:21:19.274Z,15.4
2017-10-27T00:21:45.392Z,15.36
2017-10-27T00:22:11.538Z,15.33
2017-10-27T00:22:37.661Z,15.35
2017-10-27T00:23:03.779Z,15.35
2017-10-27T00:23:29.909Z,15.27
2017-10-27T00:23:56.030Z,15.29
2017-10-27T00:24:22.140Z,15.27
2017-10-27T00:24:48.266Z,15.25
2017-10-27T00:25:14.395Z,15.28
2017-10-27T00:25:40.517Z,15.28
2017-10-27T00:26:06.642Z,15.27
2017-10-27T00:26:32.760Z,15.29
2017-10-27T00:26:58.884Z,15.28
2017-10-27T00:27:25.007Z,15.29
2017-10-27T00:27:51.127Z,15.29
2017-10-27T00:28:17.256Z,15.31
2017-10-27T00:28:43.393Z,15.27
2017-10-27T00:29:09.503Z,15.21
2017-10-27T00:29:35.625Z,15.14
2017-10-27T00:30:01.753Z,15.07
2017-10-27T00:30:27.869Z,15.07
2017-10-27T00:30:53.995Z,15.11
2017-10-27T00:31:20.121Z,15.04
2017-10-27T00:31:46.243Z,15
2017-10-27T00:32:12.388Z,15.07
2017-10-27T00:32:38.514Z,15.04
2017-10-27T00:33:04.634Z,15.09
2017-10-27T00:33:30.760Z,15.04
2017-10-27T00:33:56.876Z,15.09
2017-10-27T00:34:22.999Z,15.04
2017-10-27T00:34:49.116Z,15.11
2017-10-27T00:35:15.244Z,15
2017-10-27T00:35:41.369Z,14.96
2017-10-27T00:36:07.485Z,14.99
2017-10-27T00:36:33.607Z,14.99
2017-10-27T00:36:59.734Z,14.92
2017-10-27T00:37:25.896Z,14.88
2017-10-27T00:37:52.016Z,14.85
2017-10-27T00:38:18.142Z,14.89
2017-10-27T00:38:44.262Z,14.99
2017-10-27T00:39:10.393Z,14.94
2017-10-27T00:39:36.508Z,14.84
2017-10-27T00:40:02.652Z,14.92
2017-10-27T00:40:28.780Z,14.86
2017-10-27T00:40:54.902Z,14.82
2017-10-27T00:41:21.025Z,14.94
2017-10-27T00:41:47.145Z,14.81
2017-10-27T00:42:13.271Z,14.84
2017-10-27T00:42:39.395Z,14.84
2017-10-27T00:43:05.513Z,14.82
2017-10-27T00:43:31.640Z,14.84
2017-10-27T00:43:57.758Z,14.84
2017-10-27T00:44:23.887Z,14.73
2017-10-27T00:44:50.003Z,14.88
2017-10-27T00:45:16.124Z,14.82
2017-10-27T00:45:42.264Z,14.82
2017-10-27T00:46:08.378Z,14.79
2017-10-27T00:46:34.503Z,14.73
2017-10-27T00:47:00.620Z,14.7
2017-10-27T00:47:26.742Z,14.7
2017-10-27T00:47:52.859Z,14.78
2017-10-27T00:48:18.997Z,14.82
2017-10-27T00:48:45.115Z,14.86
2017-10-27T00:49:11.236Z,14.85
2017-10-27T00:49:37.357Z,14.85
2017-10-27T00:50:03.477Z,14.81
2017-10-27T00:50:29.608Z,14.88
2017-10-27T00:50:55.726Z,14.81
2017-10-27T00:51:21.850Z,14.91
2017-10-27T00:51:47.975Z,14.86
2017-10-27T00:52:14.101Z,14.79
2017-10-27T00:52:40.223Z,14.81
2017-10-27T00:53:06.344Z,14.82
2017-10-27T00:53:32.495Z,14.91
2017-10-27T00:53:58.600Z,14.86
2017-10-27T00:54:24.719Z,14.81
2017-10-27T00:54:50.847Z,14.84
2017-10-27T00:55:16.972Z,14.86
2017-10-27T00:55:43.092Z,14.82
2017-10-27T00:56:09.232Z,14.92
2017-10-27T00:56:35.361Z,14.91
2017-10-27T00:57:01.480Z,14.94
2017-10-27T00:57:27.606Z,14.96
2017-10-27T00:57:53.723Z,14.99
2017-10-27T00:58:19.850Z,15
2017-10-27T00:58:45.983Z,15.02
2017-10-27T00:59:12.098Z,14.99
2017-10-27T00:59:38.222Z,14.91
2017-10-27T01:00:04.345Z,14.97
2017-10-27T01:00:30.462Z,14.91
2017-10-27T01:00:56.583Z,14.92
2017-10-27T01:01:22.710Z,14.85
2017-10-27T01:01:48.848Z,14.85
2017-10-27T01:02:14.973Z,14.86
2017-10-27T01:02:41.093Z,14.77
2017-10-27T01:03:07.221Z,14.78
2017-10-27T01:03:33.355Z,14.72
2017-10-27T01:03:59.489Z,14.7
2017-10-27T01:04:25.603Z,14.84
2017-10-27T01:04:51.728Z,14.84
2017-10-27T01:05:17.846Z,14.79
2017-10-27T01:05:43.971Z,14.69
2017-10-27T01:06:10.092Z,14.82
2017-10-27T01:06:36.218Z,14.79
2017-10-27T01:07:02.340Z,14.84
2017-10-27T01:07:28.466Z,14.69
2017-10-27T01:07:54.586Z,14.79
2017-10-27T01:08:20.703Z,14.78
2017-10-27T01:08:46.833Z,14.82
2017-10-27T01:09:12.959Z,14.78
2017-10-27T01:09:39.074Z,14.79
2017-10-27T01:10:05.195Z,14.78
2017-10-27T01:10:31.345Z,14.77
2017-10-27T01:10:57.467Z,14.79
2017-10-27T01:11:23.588Z,14.73
2017-10-27T01:11:49.707Z,14.79
2017-10-27T01:12:15.829Z,14.69
2017-10-27T01:12:41.962Z,14.77
2017-10-27T01:13:08.083Z,14.85
2017-10-27T01:13:34.206Z,14.7
2017-10-27T01:14:00.333Z,14.84
2017-10-27T01:14:26.450Z,14.66
2017-10-27T01:14:52.574Z,14.73
2017-10-27T01:15:18.696Z,14.72
2017-10-27T01:15:44.817Z,14.79
2017-10-27T01:16:10.951Z,14.85
2017-10-27T01:16:37.070Z,14.84
2017-10-27T01:17:03.192Z,14.73
2017-10-27T01:17:29.313Z,14.77
2017-10-27T01:17:55.435Z,14.72
2017-10-27T01:18:21.553Z,14.73
2017-10-27T01:18:47.677Z,14.79
2017-10-27T01:19:13.801Z,14.81
2017-10-27T01:19:39.919Z,14.72
2017-10-27T01:20:06.072Z,14.73
2017-10-27T01:20:32.190Z,14.65
2017-10-27T01:20:58.309Z,14.73
2017-10-27T01:21:24.451Z,14.7
2017-10-27T01:21:50.578Z,14.77
2017-10-27T01:22:16.695Z,14.63
2017-10-27T01:22:42.818Z,14.7
2017-10-27T01:23:08.946Z,14.63
2017-10-27T01:23:35.063Z,14.62
2017-10-27T01:24:01.188Z,14.68
2017-10-27T01:24:27.308Z,14.62
2017-10-27T01:24:53.428Z,14.66
2017-10-27T01:25:19.579Z,14.7
2017-10-27T01:25:45.698Z,14.77
2017-10-27T01:26:11.818Z,14.72
2017-10-27T01:26:37.946Z,14.68
2017-10-27T01:27:04.068Z,14.73
2017-10-27T01:27:30.189Z,14.68
2017-10-27T01:27:56.311Z,14.68
2017-10-27T01:28:22.432Z,14.77
2017-10-27T01:28:48.552Z,14.63
2017-10-27T01:29:14.677Z,14.7
2017-10-27T01:29:40.795Z,14.7
2017-10-27T01:30:06.923Z,14.69
2017-10-27T01:30:33.044Z,14.66
2017-10-27T01:30:59.168Z,14.66
2017-10-27T01:31:25.290Z,14.69
2017-10-27T01:31:51.417Z,14.66
2017-10-27T01:32:17.535Z,14.66
2017-10-27T01:32:43.682Z,14.65
2017-10-27T01:33:09.800Z,14.63
2017-10-27T01:33:35.923Z,14.77
2017-10-27T01:34:02.047Z,14.78
2017-10-27T01:34:28.171Z,14.72
2017-10-27T01:34:54.292Z,14.68
2017-10-27T01:35:20.420Z,14.7
2017-10-27T01:35:46.539Z,14.73
2017-10-27T01:36:12.666Z,14.68
2017-10-27T01:36:38.790Z,14.68
2017-10-27T01:37:04.936Z,14.7
2017-10-27T01:37:31.052Z,14.63
2017-10-27T01:37:57.196Z,14.77
2017-10-27T01:38:23.317Z,14.77
2017-10-27T01:38:49.443Z,14.79
2017-10-27T01:39:15.560Z,14.82
2017-10-27T01:39:41.688Z,14.68
2017-10-27T01:40:07.822Z,14.73
2017-10-27T01:40:33.929Z,14.79
2017-10-27T01:41:00.081Z,14.73
2017-10-27T01:41:26.215Z,14.79
2017-10-27T01:41:52.337Z,14.66
2017-10-27T01:42:18.455Z,14.66
2017-10-27T01:42:44.576Z,14.66
2017-10-27T01:43:10.701Z,14.63
2017-10-27T01:43:36.872Z,14.66
2017-10-27T01:44:03.012Z,14.66
2017-10-27T01:44:29.116Z,14.72
2017-10-27T01:44:55.241Z,14.72
2017-10-27T01:45:21.363Z,14.68
2017-10-27T01:45:47.493Z,14.68
2017-10-27T01:46:13.620Z,14.72
2017-10-27T01:46:39.734Z,14.62
2017-10-27T01:47:05.859Z,14.65
2017-10-27T01:47:31.981Z,14.68
2017-10-27T01:47:58.105Z,14.63
2017-10-27T01:48:24.227Z,14.65
2017-10-27T01:48:50.343Z,14.69
2017-10-27T01:49:16.462Z,14.68
2017-10-27T01:49:42.600Z,14.63
2017-10-27T01:50:08.728Z,14.62
2017-10-27T01:50:34.853Z,14.55
2017-10-27T01:51:00.978Z,14.58
2017-10-27T01:51:27.103Z,14.66
2017-10-27T01:51:53.224Z,14.54
2017-10-27T01:52:19.341Z,14.6
2017-10-27T01:52:45.467Z,14.55
2017-10-27T01:53:11.609Z,14.59
2017-10-27T01:53:37.735Z,14.54
2017-10-27T01:54:03.859Z,14.48
2017-10-27T01:54:29.984Z,14.5
2017-10-27T01:56:25.283Z,14.55
2017-10-27T01:56:51.450Z,14.43
2017-10-27T01:57:17.604Z,14.44
2017-10-27T01:57:43.751Z,14.41
2017-10-27T01:58:09.897Z,14.47
2017-10-27T01:58:36.051Z,14.47
2017-10-27T01:59:02.196Z,14.43
2017-10-27T01:59:28.372Z,14.41
2017-10-27T01:59:54.519Z,14.43
2017-10-27T02:00:20.659Z,14.32
2017-10-27T02:00:46.811Z,14.47
2017-10-27T02:01:15.986Z,14.33
2017-10-27T02:01:42.138Z,14.32
2017-10-27T02:02:08.278Z,14.37
2017-10-27T02:02:34.429Z,14.36
2017-10-27T02:03:00.569Z,14.33
2017-10-27T02:03:52.417Z,14.37
2017-10-27T02:04:18.560Z,14.48
2017-10-27T02:04:44.704Z,14.44
2017-10-27T02:05:10.854Z,14.47
2017-10-27T02:05:37.005Z,14.47
2017-10-27T02:06:03.153Z,14.48
2017-10-27T02:06:29.307Z,14.48
2017-10-27T02:06:55.453Z,14.48
2017-10-27T02:07:21.609Z,14.41
2017-10-27T02:07:47.782Z,14.41
2017-10-27T02:08:13.923Z,14.44
2017-10-27T02:08:40.078Z,14.44
2017-10-27T02:09:06.242Z,14.41
2017-10-27T02:09:32.386Z,14.44
2017-10-27T02:09:58.539Z,14.43
2017-10-27T02:10:24.689Z,14.53
2017-10-27T02:10:50.830Z,14.5
2017-10-27T02:11:16.977Z,14.48
2017-10-27T02:11:43.126Z,14.53
2017-10-27T02:12:09.268Z,14.48
2017-10-27T02:12:35.419Z,14.48
2017-10-27T02:13:01.561Z,14.54
2017-10-27T02:13:27.713Z,14.58
2017-10-27T02:13:53.864Z,14.5
2017-10-27T02:14:20.001Z,14.54
2017-10-27T02:14:46.143Z,14.59
2017-10-27T02:15:12.293Z,14.53
2017-10-27T02:15:38.442Z,14.54
2017-10-27T02:16:04.587Z,14.48
2017-10-27T02:16:30.732Z,14.54
2017-10-27T02:16:56.938Z,14.5
2017-10-27T02:17:23.081Z,14.54
2017-10-27T02:17:49.234Z,14.47
2017-10-27T02:18:15.380Z,14.37
2017-10-27T02:18:41.525Z,14.41
2017-10-27T02:19:07.676Z,14.36
2017-10-27T02:19:33.826Z,14.4
2017-10-27T02:19:59.987Z,14.48
2017-10-27T02:20:26.141Z,14.48
2017-10-27T02:20:52.283Z,14.45
2017-10-27T02:21:18.434Z,14.5
2017-10-27T02:21:44.589Z,14.36
2017-10-27T02:22:10.729Z,14.44
2017-10-27T02:22:36.870Z,14.44
2017-10-27T02:23:03.023Z,14.55
2017-10-27T02:23:29.162Z,14.48
2017-10-27T02:23:55.338Z,14.53
2017-10-27T02:24:21.472Z,14.51
2017-10-27T02:24:47.620Z,14.44
2017-10-27T02:25:13.759Z,14.48
2017-10-27T02:25:39.912Z,14.41
2017-10-27T02:26:06.052Z,14.48
2017-10-27T02:26:32.199Z,14.4
2017-10-27T02:26:58.355Z,14.47
2017-10-27T02:27:24.494Z,14.44
2017-10-27T02:27:50.669Z,14.51
2017-10-27T02:28:16.812Z,14.44
2017-10-27T02:28:42.987Z,14.48
2017-10-27T02:29:09.135Z,14.44
2017-10-27T02:29:35.314Z,14.5
2017-10-27T02:30:01.456Z,14.43
2017-10-27T02:30:27.601Z,14.43
2017-10-27T02:30:53.752Z,14.45
2017-10-27T02:31:19.895Z,14.45
2017-10-27T02:31:46.043Z,14.41
2017-10-27T02:32:12.192Z,14.41
2017-10-27T02:32:38.339Z,14.33
2017-10-27T02:33:04.490Z,14.33
2017-10-27T02:33:30.629Z,14.32
2017-10-27T02:33:56.773Z,14.44
2017-10-27T02:34:22.926Z,14.35
2017-10-27T02:34:49.076Z,14.32
2017-10-27T02:35:15.216Z,14.37
2017-10-27T02:35:41.390Z,14.3
2017-10-27T02:36:07.535Z,14.36
2017-10-27T02:36:33.678Z,14.35
2017-10-27T02:36:59.829Z,14.3
2017-10-27T02:37:25.977Z,14.28
2017-10-27T02:37:52.120Z,14.25
2017-10-27T02:38:18.268Z,14.26
2017-10-27T02:38:44.411Z,14.29
2017-10-27T02:39:10.561Z,14.26
2017-10-27T02:39:36.708Z,14.23
2017-10-27T02:40:02.849Z,14.28
2017-10-27T02:40:29.000Z,14.22
2017-10-27T02:40:55.148Z,14.25
2017-10-27T02:41:21.293Z,14.23
2017-10-27T02:41:47.462Z,14.2
2017-10-27T02:42:13.611Z,14.23
2017-10-27T02:42:39.745Z,14.25
2017-10-27T02:43:05.895Z,14.26
2017-10-27T02:43:32.045Z,14.28
2017-10-27T02:43:58.230Z,14.14
2017-10-27T02:44:24.369Z,14.18
2017-10-27T02:44:50.541Z,14.15
2017-10-27T02:45:16.685Z,14.15
2017-10-27T02:45:42.833Z,14.15
2017-10-27T02:46:08.980Z,14.07
2017-10-27T02:46:35.124Z,14.1
2017-10-27T02:47:01.269Z,14.11
2017-10-27T02:47:27.445Z,14.14
2017-10-27T02:47:53.622Z,14.23
2017-10-27T02:48:19.789Z,14.15
2017-10-27T02:48:45.942Z,14.12
2017-10-27T02:49:12.108Z,14.15
2017-10-27T02:49:38.248Z,14.26
2017-10-27T02:50:04.402Z,14.26
2017-10-27T02:50:30.550Z,14.17
2017-10-27T02:50:56.721Z,14.22
2017-10-27T02:51:22.873Z,14.22
2017-10-27T02:51:49.016Z,14.17
2017-10-27T02:52:15.167Z,14.28
2017-10-27T02:52:41.310Z,14.22
2017-10-27T02:53:07.481Z,14.17
2017-10-27T02:53:33.627Z,14.17
2017-10-27T02:53:59.782Z,14.2
2017-10-27T02:54:25.922Z,14.12
2017-10-27T02:54:52.065Z,14.14
2017-10-27T02:55:18.224Z,14.14
2017-10-27T02:55:44.365Z,14.15
2017-10-27T02:56:10.513Z,14.2
2017-10-27T02:56:36.657Z,14.28
2017-10-27T02:57:02.812Z,14.22
2017-10-27T02:57:28.953Z,14.29
2017-10-27T02:57:55.104Z,14.15
2017-10-27T02:58:21.244Z,14.11
2017-10-27T02:58:47.395Z,14.14
2017-10-27T02:59:13.542Z,14.18
2017-10-27T02:59:39.716Z,14.18
2017-10-27T03:00:05.876Z,14.18
2017-10-27T03:00:32.010Z,14.1
2017-10-27T03:00:58.157Z,14.12
2017-10-27T03:01:24.305Z,14.11
2017-10-27T03:01:50.469Z,14.14
2017-10-27T03:02:16.618Z,14.11
2017-10-27T03:02:42.763Z,14.14
2017-10-27T03:03:08.906Z,14.08
2017-10-27T03:03:35.052Z,14.07
2017-10-27T03:04:01.203Z,14.11
2017-10-27T03:04:27.353Z,14.14
2017-10-27T03:04:53.505Z,14
2017-10-27T03:05:19.652Z,13.99
2017-10-27T03:05:45.794Z,14
2017-10-27T03:06:11.942Z,14.11
2017-10-27T03:06:38.092Z,13.99
2017-10-27T03:07:04.241Z,13.95
2017-10-27T03:07:30.437Z,13.99
2017-10-27T03:07:56.586Z,14
2017-10-27T03:08:22.730Z,13.97
2017-10-27T03:08:48.887Z,14.1
2017-10-27T03:09:15.013Z,13.93
2017-10-27T03:09:41.153Z,13.97
2017-10-27T03:10:07.303Z,13.99
2017-10-27T03:10:33.449Z,14.14
2017-10-27T03:10:59.595Z,14.07
2017-10-27T03:11:25.742Z,14
2017-10-27T03:11:51.894Z,13.97
2017-10-27T03:12:18.070Z,14.05
2017-10-27T03:12:44.210Z,14.03
2017-10-27T03:13:10.361Z,13.96
2017-10-27T03:13:36.495Z,14.12
2017-10-27T03:14:02.650Z,14.11
2017-10-27T03:14:28.844Z,14.12
2017-10-27T03:14:55.003Z,14.11
2017-10-27T03:15:21.152Z,14.11
2017-10-27T03:15:47.293Z,14.14
2017-10-27T03:16:13.446Z,14.12
2017-10-27T03:16:39.597Z,13.97
2017-10-27T03:17:05.736Z,14.04
2017-10-27T03:17:31.879Z,14.11
2017-10-27T03:17:58.032Z,14.07
2017-10-27T03:18:24.181Z,14.15
2017-10-27T03:18:50.324Z,14.08
2017-10-27T03:19:16.473Z,14.1
2017-10-27T03:19:42.619Z,14.08
2017-10-27T03:20:08.771Z,14.17
2017-10-27T03:20:34.940Z,14.12
2017-10-27T03:21:01.105Z,14.18
2017-10-27T03:21:27.290Z,14.14
2017-10-27T03:21:53.457Z,14.1
2017-10-27T03:22:19.602Z,14.2
2017-10-27T03:22:45.757Z,14.11
2017-10-27T03:23:11.931Z,14.11
2017-10-27T03:23:38.081Z,14.05
2017-10-27T03:24:04.224Z,14
2017-10-27T03:24:30.378Z,14.04
2017-10-27T03:24:56.516Z,14.04
2017-10-27T03:25:22.664Z,14.12
2017-10-27T03:25:48.815Z,13.96
2017-10-27T03:26:14.964Z,13.96
2017-10-27T03:26:41.103Z,14
2017-10-27T03:27:07.250Z,14
2017-10-27T03:27:33.414Z,13.96
2017-10-27T03:27:59.559Z,13.99
2017-10-27T03:28:25.710Z,14.12
2017-10-27T03:28:51.853Z,14.03
2017-10-27T03:29:18.003Z,13.97
2017-10-27T03:29:44.141Z,14.04
2017-10-27T03:30:10.295Z,14.03
2017-10-27T03:30:36.445Z,13.95
2017-10-27T03:31:02.585Z,13.96
2017-10-27T03:31:28.732Z,13.99
2017-10-27T03:31:54.875Z,13.96
2017-10-27T03:32:21.019Z,13.96
2017-10-27T03:32:47.172Z,13.93
2017-10-27T03:33:13.319Z,13.95
2017-10-27T03:33:39.464Z,13.95
2017-10-27T03:34:05.612Z,13.99
2017-10-27T03:34:31.759Z,13.95
2017-10-27T03:34:57.906Z,13.93
2017-10-27T03:35:24.078Z,13.97
2017-10-27T03:35:50.220Z,13.95
2017-10-27T03:36:16.402Z,13.93
2017-10-27T03:36:42.556Z,13.89
2017-10-27T03:37:08.698Z,13.9
2017-10-27T03:37:34.847Z,13.9
2017-10-27T03:38:00.994Z,13.81
2017-10-27T03:38:27.136Z,13.83
2017-10-27T03:38:53.285Z,13.81
2017-10-27T03:39:19.432Z,13.86
2017-10-27T03:39:45.580Z,13.79
2017-10-27T03:40:11.730Z,13.79
2017-10-27T03:40:37.875Z,13.78
2017-10-27T03:41:04.012Z,13.81
2017-10-27T03:41:30.155Z,13.79
2017-10-27T03:41:56.307Z,13.83
2017-10-27T03:42:22.454Z,13.78
2017-10-27T03:42:48.606Z,13.83
2017-10-27T03:43:14.745Z,13.87
2017-10-27T03:43:40.890Z,13.83
2017-10-27T03:44:07.038Z,13.83
2017-10-27T03:44:33.189Z,13.86
2017-10-27T03:44:59.326Z,13.77
2017-10-27T03:45:25.503Z,13.79
2017-10-27T03:45:51.656Z,13.77
2017-10-27T03:46:17.799Z,13.79
2017-10-27T03:46:43.946Z,13.85
2017-10-27T03:47:10.082Z,13.87
2017-10-27T03:47:36.234Z,13.75
2017-10-27T03:48:02.408Z,13.74
2017-10-27T03:48:28.556Z,13.74
2017-10-27T03:48:54.731Z,13.72
2017-10-27T03:49:20.876Z,13.83
2017-10-27T03:49:47.021Z,13.81
2017-10-27T03:50:13.170Z,13.81
2017-10-27T03:50:39.315Z,13.78
2017-10-27T03:51:05.465Z,13.77
2017-10-27T03:51:31.633Z,13.83
2017-10-27T03:51:57.776Z,13.74
2017-10-27T03:52:23.922Z,13.78
2017-10-27T03:52:50.066Z,13.77
2017-10-27T03:53:16.217Z,13.85
2017-10-27T03:53:42.391Z,13.83
2017-10-27T03:54:08.536Z,13.81
2017-10-27T03:54:34.697Z,13.75
2017-10-27T03:55:00.826Z,13.74
2017-10-27T03:55:26.979Z,13.75
2017-10-27T03:55:53.127Z,13.72
2017-10-27T03:56:19.272Z,13.71
2017-10-27T03:56:45.413Z,13.7
2017-10-27T03:57:11.566Z,13.72
2017-10-27T03:57:37.714Z,13.75
2017-10-27T03:58:03.854Z,13.81
2017-10-27T03:58:30.007Z,13.7
2017-10-27T03:58:56.144Z,13.72
2017-10-27T03:59:22.287Z,13.72
2017-10-27T03:59:48.438Z,13.72
2017-10-27T04:00:14.580Z,13.65
2017-10-27T04:00:40.732Z,13.81
2017-10-27T04:01:06.870Z,13.7
2017-10-27T04:01:33.049Z,13.7
2017-10-27T04:01:59.203Z,13.63
2017-10-27T04:02:25.349Z,13.7
2017-10-27T04:02:51.500Z,13.71
2017-10-27T04:03:17.664Z,13.72
2017-10-27T04:03:43.813Z,13.63
2017-10-27T04:04:09.953Z,13.63
2017-10-27T04:04:36.100Z,13.63
2017-10-27T04:05:02.246Z,13.68
2017-10-27T04:05:28.387Z,13.65
2017-10-27T04:05:54.533Z,13.65
2017-10-27T04:06:20.678Z,13.62
2017-10-27T04:06:46.823Z,13.71
2017-10-27T04:07:12.973Z,13.57
2017-10-27T04:07:39.120Z,13.57
2017-10-27T04:08:05.266Z,13.57
2017-10-27T04:08:31.419Z,13.5
2017-10-27T04:08:57.563Z,13.62
2017-10-27T04:09:23.734Z,13.59
2017-10-27T04:09:49.882Z,13.6
2017-10-27T04:10:16.031Z,13.46
2017-10-27T04:10:42.172Z,13.46
2017-10-27T04:11:08.321Z,13.52
2017-10-27T04:11:34.467Z,13.6
2017-10-27T04:12:00.617Z,13.5
2017-10-27T04:12:26.765Z,13.62
2017-10-27T04:12:52.909Z,13.62
2017-10-27T04:13:19.050Z,13.59
2017-10-27T04:13:45.200Z,13.57
2017-10-27T04:14:11.341Z,13.5
2017-10-27T04:14:37.493Z,13.6
2017-10-27T04:15:03.640Z,13.56
2017-10-27T04:15:29.782Z,13.6
2017-10-27T04:15:55.932Z,13.57
2017-10-27T04:16:22.083Z,13.54
2017-10-27T04:16:48.223Z,13.46
2017-10-27T04:17:14.365Z,13.54
2017-10-27T04:17:40.516Z,13.47
2017-10-27T04:18:06.659Z,13.53
2017-10-27T04:18:32.813Z,13.52
2017-10-27T04:18:58.954Z,13.47
2017-10-27T04:19:25.096Z,13.53
2017-10-27T04:19:51.248Z,13.57
2017-10-27T04:20:17.399Z,13.5
2017-10-27T04:20:43.539Z,13.56
2017-10-27T04:21:09.684Z,13.62
2017-10-27T04:21:35.832Z,13.62
2017-10-27T04:22:01.971Z,13.6
2017-10-27T04:22:28.117Z,13.54
2017-10-27T04:22:54.268Z,13.52
2017-10-27T04:23:20.408Z,13.52
2017-10-27T04:23:46.553Z,13.54
2017-10-27T04:24:12.728Z,13.49
2017-10-27T04:24:38.883Z,13.59
2017-10-27T04:25:05.017Z,13.6
2017-10-27T04:25:31.160Z,13.49
2017-10-27T04:25:57.315Z,13.52
2017-10-27T04:26:23.490Z,13.53
2017-10-27T04:26:49.633Z,13.53
2017-10-27T04:27:15.784Z,13.53
2017-10-27T04:27:41.931Z,13.56
2017-10-27T04:28:08.081Z,13.38
2017-10-27T04:28:34.224Z,13.41
2017-10-27T04:29:00.370Z,13.42
2017-10-27T04:29:26.551Z,13.52
2017-10-27T04:29:52.719Z,13.41
2017-10-27T04:30:18.861Z,13.46
2017-10-27T04:30:45.004Z,13.53
2017-10-27T04:31:11.150Z,13.44
2017-10-27T04:31:37.289Z,13.53
2017-10-27T04:32:03.451Z,13.44
2017-10-27T04:32:29.591Z,13.41
2017-10-27T04:32:55.741Z,13.44
2017-10-27T04:33:21.894Z,13.44
2017-10-27T04:33:48.045Z,13.52
2017-10-27T04:34:14.194Z,13.39
2017-10-27T04:34:40.357Z,13.42
2017-10-27T04:35:06.483Z,13.39
2017-10-27T04:35:32.636Z,13.41
2017-10-27T04:35:58.782Z,13.38
2017-10-27T04:36:24.928Z,13.52
2017-10-27T04:36:51.075Z,13.49
2017-10-27T04:37:17.216Z,13.37
2017-10-27T04:37:43.361Z,13.47
2017-10-27T04:38:09.508Z,13.46
2017-10-27T04:38:35.655Z,13.42
2017-10-27T04:39:01.810Z,13.41
2017-10-27T04:39:27.951Z,13.49
2017-10-27T04:39:54.107Z,13.41
2017-10-27T04:40:20.247Z,13.47
2017-10-27T04:40:46.386Z,13.37
2017-10-27T04:41:12.541Z,13.41
2017-10-27T04:41:38.682Z,13.42
2017-10-27T04:42:04.830Z,13.44
2017-10-27T04:42:30.982Z,13.46
2017-10-27T04:42:57.127Z,13.44
2017-10-27T04:43:23.277Z,13.49
2017-10-27T04:43:49.426Z,13.41
2017-10-27T04:44:15.562Z,13.5
2017-10-27T04:44:41.713Z,13.41
2017-10-27T04:45:07.853Z,13.52
2017-10-27T04:45:34.001Z,13.49
2017-10-27T04:46:00.147Z,13.38
2017-10-27T04:46:26.290Z,13.41
2017-10-27T04:46:52.444Z,13.41
2017-10-27T04:47:18.589Z,13.38
2017-10-27T04:47:44.739Z,13.37
2017-10-27T04:48:10.883Z,13.38
2017-10-27T04:48:37.031Z,13.35
2017-10-27T04:49:03.175Z,13.39
2017-10-27T04:49:29.318Z,13.42
2017-10-27T04:49:55.462Z,13.41
2017-10-27T04:50:21.602Z,13.39
2017-10-27T04:50:47.744Z,13.37
2017-10-27T04:51:13.899Z,13.35
2017-10-27T04:51:40.042Z,13.31
2017-10-27T04:52:06.191Z,13.42
2017-10-27T04:52:32.334Z,13.38
2017-10-27T04:52:58.487Z,13.37
2017-10-27T04:53:24.632Z,13.39
2017-10-27T04:53:50.780Z,13.27
2017-10-27T04:54:16.926Z,13.28
2017-10-27T04:54:43.078Z,13.3
2017-10-27T04:55:09.228Z,13.35
2017-10-27T04:55:35.370Z,13.37
2017-10-27T04:56:01.545Z,13.31
2017-10-27T04:56:27.692Z,13.37
2017-10-27T04:56:53.843Z,13.37
2017-10-27T04:57:19.986Z,13.39
2017-10-27T04:57:46.133Z,13.39
2017-10-27T04:58:12.326Z,13.37
2017-10-27T04:58:38.502Z,13.39
2017-10-27T04:59:04.642Z,13.44
2017-10-27T04:59:30.792Z,13.37
2017-10-27T04:59:56.936Z,13.33
2017-10-27T05:00:23.080Z,13.38
2017-10-27T05:00:49.230Z,13.35
2017-10-27T05:01:15.371Z,13.33
2017-10-27T05:01:41.521Z,13.3
2017-10-27T05:02:07.666Z,13.44
2017-10-27T05:02:33.810Z,13.39
2017-10-27T05:02:59.957Z,13.33
2017-10-27T05:03:26.109Z,13.39
2017-10-27T05:03:52.248Z,13.33
2017-10-27T05:04:18.398Z,13.37
2017-10-27T05:04:44.548Z,13.41
2017-10-27T05:05:10.691Z,13.38
2017-10-27T05:05:36.838Z,13.44
2017-10-27T05:06:02.982Z,13.42
2017-10-27T05:06:29.135Z,13.37
2017-10-27T05:06:55.275Z,13.35
2017-10-27T05:07:21.446Z,13.31
2017-10-27T05:07:47.603Z,13.37
2017-10-27T05:08:13.753Z,13.37
2017-10-27T05:08:39.895Z,13.33
2017-10-27T05:09:06.040Z,13.39
2017-10-27T05:09:32.193Z,13.35
2017-10-27T05:09:58.331Z,13.38
2017-10-27T05:10:24.484Z,13.38
2017-10-27T05:10:50.626Z,13.27
2017-10-27T05:11:16.770Z,13.27
2017-10-27T05:11:42.926Z,13.3
2017-10-27T05:12:09.074Z,13.33
2017-10-27T05:12:35.213Z,13.27
2017-10-27T05:13:01.366Z,13.37
2017-10-27T05:13:27.507Z,13.31
2017-10-27T05:13:53.658Z,13.27
2017-10-27T05:14:19.808Z,13.19
2017-10-27T05:14:45.949Z,13.23
2017-10-27T05:15:12.092Z,13.27
2017-10-27T05:15:38.240Z,13.3
2017-10-27T05:16:04.381Z,13.38
2017-10-27T05:16:30.526Z,13.39
2017-10-27T05:16:56.711Z,13.37
2017-10-27T05:17:22.846Z,13.41
2017-10-27T05:17:48.990Z,13.46
2017-10-27T05:18:15.142Z,13.39
2017-10-27T05:18:41.290Z,13.37
2017-10-27T05:19:07.442Z,13.44
2017-10-27T05:19:33.586Z,13.3
2017-10-27T05:19:59.762Z,13.27
2017-10-27T05:20:25.903Z,13.2
2017-10-27T05:20:52.052Z,13.27
2017-10-27T05:21:18.196Z,13.3
2017-10-27T05:21:44.345Z,13.33
2017-10-27T05:22:10.491Z,13.41
2017-10-27T05:22:36.638Z,13.35
2017-10-27T05:23:02.814Z,13.25
2017-10-27T05:23:28.951Z,13.22
2017-10-27T05:23:55.107Z,13.18
2017-10-27T05:24:21.249Z,13.18
2017-10-27T05:24:47.408Z,13.11
2017-10-27T05:25:13.549Z,13.13
2017-10-27T05:25:39.693Z,13.2
2017-10-27T05:26:05.840Z,13.12
2017-10-27T05:26:32.013Z,13.25
2017-10-27T05:26:58.192Z,13.25
2017-10-27T05:27:24.329Z,13.28
2017-10-27T05:27:50.477Z,13.3
2017-10-27T05:28:16.657Z,13.25
2017-10-27T05:28:42.796Z,13.2
2017-10-27T05:29:08.934Z,13.23
2017-10-27T05:29:35.083Z,13.25
2017-10-27T05:30:01.224Z,13.22
2017-10-27T05:30:27.374Z,13.27
2017-10-27T05:30:53.524Z,13.22
2017-10-27T05:31:19.665Z,13.28
2017-10-27T05:31:45.808Z,13.3
2017-10-27T05:32:11.961Z,13.3
2017-10-27T05:32:38.111Z,13.25
2017-10-27T05:33:04.259Z,13.3
2017-10-27T05:33:30.404Z,13.22
2017-10-27T05:33:56.554Z,13.25
2017-10-27T05:34:22.698Z,13.25
2017-10-27T05:34:48.890Z,13.23
2017-10-27T05:35:15.034Z,13.27
2017-10-27T05:35:41.182Z,13.27
2017-10-27T05:36:07.319Z,13.28
2017-10-27T05:36:33.477Z,13.15
2017-10-27T05:36:59.630Z,13.15
2017-10-27T05:37:25.777Z,13.2
2017-10-27T05:37:51.948Z,13.12
2017-10-27T05:38:18.089Z,13.25
2017-10-27T05:38:44.266Z,13.12
2017-10-27T05:39:10.413Z,13.18
2017-10-27T05:39:36.584Z,13.15
2017-10-27T05:40:02.729Z,13.13